createdAt,value
2023-05-22T00:01:46.816Z,15.77
2023-05-22T00:04:13.683Z,15.70
2023-05-22T00:06:43.674Z,15.64
2023-05-22T00:09:10.363Z,15.53
2023-05-22T00:11:37.097Z,15.56
2023-05-22T00:14:03.908Z,15.53
2023-05-22T00:16:30.756Z,15.54
2023-05-22T00:18:57.769Z,15.57
2023-05-22T00:21:24.756Z,15.62
2023-05-22T00:23:51.511Z,15.64
2023-05-22T00:26:18.219Z,15.70
2023-05-22T00:28:44.877Z,15.71
2023-05-22T00:31:11.601Z,15.72
2023-05-22T00:33:38.402Z,15.59
2023-05-22T00:36:05.673Z,15.40
2023-05-22T00:38:34.812Z,15.42
2023-05-22T00:41:02.760Z,15.32
2023-05-22T00:43:29.725Z,15.32
2023-05-22T00:45:56.698Z,15.35
2023-05-22T00:48:24.208Z,15.34
2023-05-22T00:50:51.893Z,15.28
2023-05-22T00:53:23.490Z,15.21
2023-05-22T00:55:51.355Z,15.13
2023-05-22T00:58:18.542Z,15.17
2023-05-22T01:00:46.802Z,15.05
2023-05-22T01:03:14.873Z,15.04
2023-05-22T01:05:42.039Z,15.11
2023-05-22T01:08:09.322Z,15.04
2023-05-22T01:10:38.773Z,15.07
2023-05-22T01:13:11.741Z,15.05
2023-05-22T01:15:47.593Z,14.96
2023-05-22T01:18:25.105Z,14.88
2023-05-22T01:20:55.134Z,14.78
2023-05-22T01:23:37.359Z,14.72
2023-05-22T01:26:22.486Z,14.67
2023-05-22T01:29:07.424Z,14.62
2023-05-22T01:31:39.423Z,14.62
2023-05-22T01:34:07.492Z,14.62
2023-05-22T01:36:37.392Z,14.56
2023-05-22T01:39:06.485Z,14.55
2023-05-22T01:41:34.373Z,14.54
2023-05-22T01:44:02.137Z,14.57
2023-05-22T01:46:30.396Z,14.54
2023-05-22T01:48:58.348Z,14.46
2023-05-22T01:51:31.686Z,14.41
2023-05-22T01:54:14.907Z,14.34
2023-05-22T01:56:54.977Z,14.25
2023-05-22T01:59:32.130Z,14.16
2023-05-22T02:02:06.189Z,14.23
2023-05-22T02:04:38.115Z,14.22
2023-05-22T02:07:06.654Z,14.24
2023-05-22T02:09:35.071Z,14.18
2023-05-22T02:12:03.110Z,14.09
2023-05-22T02:14:30.745Z,13.97
2023-05-22T02:16:58.134Z,13.79
2023-05-22T02:19:26.724Z,13.66
2023-05-22T02:21:53.691Z,13.61
2023-05-22T02:24:20.644Z,13.63
2023-05-22T02:26:48.118Z,13.62
2023-05-22T02:29:15.330Z,13.55
2023-05-22T02:31:42.263Z,13.48
2023-05-22T02:34:09.069Z,13.48
2023-05-22T02:36:37.418Z,13.50
2023-05-22T02:39:05.222Z,13.53
2023-05-22T02:41:32.394Z,13.53
2023-05-22T02:43:59.121Z,13.55
2023-05-22T02:46:26.315Z,13.51
2023-05-22T02:48:53.043Z,13.47
2023-05-22T02:51:19.786Z,13.45
2023-05-22T02:53:46.513Z,13.41
2023-05-22T02:56:13.245Z,13.35
2023-05-22T02:58:40.011Z,13.30
2023-05-22T03:01:09.039Z,13.31
2023-05-22T03:03:36.005Z,13.25
2023-05-22T03:06:04.294Z,13.21
2023-05-22T03:08:32.938Z,13.21
2023-05-22T03:11:00.504Z,13.18
2023-05-22T03:13:27.310Z,13.20
2023-05-22T03:15:54.053Z,13.16
2023-05-22T03:18:21.909Z,13.09
2023-05-22T03:20:48.902Z,13.06
2023-05-22T03:23:15.776Z,13.04
2023-05-22T03:25:42.580Z,13.04
2023-05-22T03:28:09.451Z,13.01
2023-05-22T03:30:39.850Z,13.03
2023-05-22T03:33:16.272Z,13.05
2023-05-22T03:35:44.655Z,13.03
2023-05-22T03:38:11.747Z,13.00
2023-05-22T03:40:38.762Z,12.98
2023-05-22T03:43:05.982Z,12.95
2023-05-22T03:45:32.708Z,12.94
2023-05-22T03:47:59.871Z,12.93
2023-05-22T03:50:26.612Z,12.94
2023-05-22T03:52:53.302Z,12.95
2023-05-22T03:55:20.041Z,12.93
2023-05-22T03:57:46.746Z,12.96
2023-05-22T04:00:14.077Z,13.00
2023-05-22T04:02:44.908Z,13.09
2023-05-22T04:05:12.090Z,13.15
2023-05-22T04:07:38.824Z,13.20
2023-05-22T04:10:06.408Z,13.20
2023-05-22T04:12:33.495Z,13.18
2023-05-22T04:15:00.218Z,13.06
2023-05-22T04:17:32.578Z,12.97
2023-05-22T04:20:00.424Z,12.86
2023-05-22T04:22:27.779Z,12.83
2023-05-22T04:24:54.522Z,12.80
2023-05-22T04:27:22.625Z,12.80
2023-05-22T04:29:50.524Z,12.83
2023-05-22T04:32:21.988Z,12.90
2023-05-22T04:34:51.091Z,12.99
2023-05-22T04:37:20.279Z,13.05
2023-05-22T04:39:47.963Z,13.12
2023-05-22T04:42:16.101Z,13.23
2023-05-22T04:44:43.617Z,13.34
2023-05-22T04:47:12.104Z,13.46
2023-05-22T04:49:39.248Z,13.59
2023-05-22T04:52:07.220Z,13.74
2023-05-22T04:54:34.599Z,13.91
2023-05-22T04:57:03.114Z,14.04
2023-05-22T04:59:31.716Z,14.21
2023-05-22T05:01:58.384Z,14.34
2023-05-22T05:04:25.076Z,14.50
2023-05-22T05:06:53.549Z,14.63
2023-05-22T05:09:20.754Z,14.77
2023-05-22T05:11:47.471Z,14.89
2023-05-22T05:14:14.209Z,15.02
2023-05-22T05:16:41.258Z,15.20
2023-05-22T05:19:08.034Z,15.33
2023-05-22T05:21:34.870Z,15.52
2023-05-22T05:24:02.030Z,15.65
2023-05-22T05:26:28.723Z,15.82
2023-05-22T05:28:56.774Z,15.98
2023-05-22T05:31:26.903Z,16.12
2023-05-22T05:34:13.528Z,16.33
2023-05-22T05:37:06.490Z,16.51
2023-05-22T05:39:33.580Z,16.67
2023-05-22T05:42:02.789Z,16.86
2023-05-22T05:44:29.897Z,16.92
2023-05-22T05:46:57.408Z,17.07
2023-05-22T05:49:24.217Z,17.21
2023-05-22T05:51:51.570Z,17.35
2023-05-22T05:54:19.957Z,17.50
2023-05-22T05:56:48.383Z,17.54
2023-05-22T05:59:16.124Z,17.70
2023-05-22T06:02:15.160Z,17.86
2023-05-22T06:04:42.882Z,18.00
2023-05-22T06:07:10.600Z,18.11
2023-05-22T06:09:42.740Z,18.27
2023-05-22T06:12:12.909Z,18.42
2023-05-22T06:14:42.953Z,18.55
2023-05-22T06:17:10.080Z,18.73
2023-05-22T06:19:39.396Z,18.90
2023-05-22T06:22:06.306Z,19.09
2023-05-22T06:24:33.940Z,19.23
2023-05-22T06:27:06.684Z,19.06
2023-05-22T06:29:34.513Z,19.06
2023-05-22T06:32:01.547Z,19.28
2023-05-22T06:34:29.786Z,19.37
2023-05-22T06:36:58.748Z,19.42
2023-05-22T06:39:31.244Z,19.66
2023-05-22T06:42:08.505Z,19.89
2023-05-22T06:45:04.493Z,20.09
2023-05-22T06:47:38.895Z,20.16
2023-05-22T06:50:06.781Z,20.32
2023-05-22T06:52:34.192Z,20.45
2023-05-22T06:55:05.727Z,20.60
2023-05-22T06:57:40.129Z,20.78
2023-05-22T07:00:12.349Z,20.71
2023-05-22T07:03:14.563Z,20.74
2023-05-22T07:06:19.933Z,20.74
2023-05-22T07:08:47.457Z,20.80
2023-05-22T07:11:14.136Z,20.91
2023-05-22T07:13:41.505Z,20.95
2023-05-22T07:16:08.707Z,21.01
2023-05-22T07:18:35.499Z,21.07
2023-05-22T07:21:02.710Z,21.18
2023-05-22T07:23:29.931Z,21.46
2023-05-22T07:25:57.118Z,21.84
2023-05-22T07:28:29.675Z,22.16
2023-05-22T07:31:03.369Z,22.41
2023-05-22T07:33:30.470Z,22.75
2023-05-22T07:35:57.697Z,22.99
2023-05-22T07:38:24.870Z,23.02
2023-05-22T07:41:04.826Z,23.17
2023-05-22T07:43:33.127Z,23.28
2023-05-22T07:46:00.401Z,23.38
2023-05-22T07:48:32.334Z,23.67
2023-05-22T07:50:59.062Z,23.83
2023-05-22T07:53:26.272Z,24.02
2023-05-22T07:55:56.866Z,24.10
2023-05-22T07:58:24.405Z,24.33
2023-05-22T08:00:52.007Z,24.48
2023-05-22T08:03:19.595Z,24.66
2023-05-22T08:05:47.964Z,24.74
2023-05-22T08:08:14.857Z,24.80
2023-05-22T08:11:01.882Z,24.72
2023-05-22T08:13:28.960Z,24.74
2023-05-22T08:16:00.700Z,24.92
2023-05-22T08:18:29.634Z,25.04
2023-05-22T08:20:57.644Z,25.09
2023-05-22T08:23:24.364Z,25.26
2023-05-22T08:25:51.061Z,25.21
2023-05-22T08:28:17.837Z,25.16
2023-05-22T08:30:44.593Z,25.23
2023-05-22T08:33:12.350Z,25.50
2023-05-22T08:35:39.397Z,25.49
2023-05-22T08:38:06.255Z,25.45
2023-05-22T08:40:41.862Z,25.75
2023-05-22T08:43:10.076Z,26.23
2023-05-22T08:45:37.056Z,26.39
2023-05-22T08:48:08.294Z,26.27
2023-05-22T08:50:43.311Z,26.41
2023-05-22T08:53:13.454Z,26.58
2023-05-22T08:55:40.580Z,26.42
2023-05-22T08:58:08.647Z,26.57
2023-05-22T09:00:35.644Z,26.64
2023-05-22T09:03:02.830Z,26.76
2023-05-22T09:05:29.662Z,27.14
2023-05-22T09:08:02.611Z,27.32
2023-05-22T09:10:32.224Z,27.61
2023-05-22T09:13:08.095Z,27.55
2023-05-22T09:15:38.175Z,27.52
2023-05-22T09:18:06.111Z,27.34
2023-05-22T09:20:38.498Z,27.13
2023-05-22T09:23:17.900Z,27.33
2023-05-22T09:25:45.061Z,27.70
2023-05-22T09:28:12.958Z,27.98
2023-05-22T09:30:40.238Z,28.03
2023-05-22T09:33:09.058Z,28.09
2023-05-22T09:35:39.604Z,27.69
2023-05-22T09:38:06.647Z,27.81
2023-05-22T09:40:35.282Z,28.11
2023-05-22T09:43:06.666Z,28.64
2023-05-22T09:45:34.840Z,28.94
2023-05-22T09:48:02.003Z,28.81
2023-05-22T09:50:28.798Z,28.49
2023-05-22T09:52:56.432Z,28.63
2023-05-22T09:55:23.946Z,28.59
2023-05-22T09:57:52.569Z,28.73
2023-05-22T10:00:20.170Z,28.96
2023-05-22T10:02:59.060Z,29.32
2023-05-22T10:05:30.906Z,29.41
2023-05-22T10:08:04.838Z,29.65
2023-05-22T10:10:33.116Z,29.75
2023-05-22T10:13:06.722Z,29.53
2023-05-22T10:15:34.530Z,29.52
2023-05-22T10:18:01.721Z,29.84
2023-05-22T10:20:29.792Z,29.73
2023-05-22T10:22:57.059Z,29.61
2023-05-22T10:25:23.796Z,29.40
2023-05-22T10:27:53.645Z,29.47
2023-05-22T10:30:37.230Z,29.22
2023-05-22T10:33:29.603Z,29.56
2023-05-22T10:36:05.591Z,29.91
2023-05-22T10:38:50.588Z,30.25
2023-05-22T10:41:18.434Z,30.31
2023-05-22T10:43:49.167Z,30.09
2023-05-22T10:46:16.161Z,29.64
2023-05-22T10:48:48.256Z,29.63
2023-05-22T10:51:19.406Z,29.89
2023-05-22T10:53:53.147Z,30.09
2023-05-22T10:56:20.704Z,30.22
2023-05-22T10:59:04.970Z,30.55
2023-05-22T11:01:36.445Z,30.42
2023-05-22T11:04:12.268Z,30.49
2023-05-22T11:06:42.486Z,30.30
2023-05-22T11:09:32.010Z,30.35
2023-05-22T11:12:19.419Z,30.33
2023-05-22T11:15:05.901Z,30.34
2023-05-22T11:17:36.320Z,30.28
2023-05-22T11:20:12.519Z,30.16
2023-05-22T11:22:44.351Z,30.25
2023-05-22T11:25:16.717Z,30.53
2023-05-22T11:27:44.250Z,30.67
2023-05-22T11:30:12.805Z,30.67
2023-05-22T11:32:41.401Z,30.83
2023-05-22T11:35:08.645Z,30.88
2023-05-22T11:37:41.771Z,30.64
2023-05-22T11:40:09.914Z,30.76
2023-05-22T11:42:37.866Z,30.91
2023-05-22T11:45:05.230Z,31.15
2023-05-22T11:47:32.407Z,30.98
2023-05-22T11:50:00.070Z,30.97
2023-05-22T11:52:33.750Z,30.76
2023-05-22T11:55:00.597Z,30.79
2023-05-22T11:57:28.166Z,30.32
2023-05-22T11:59:54.911Z,30.59
2023-05-22T12:02:21.754Z,31.02
2023-05-22T12:04:53.678Z,31.02
2023-05-22T12:07:21.674Z,31.14
2023-05-22T12:09:49.119Z,31.00
2023-05-22T12:12:16.239Z,30.80
2023-05-22T12:14:46.801Z,30.89
2023-05-22T12:17:14.422Z,30.99
2023-05-22T12:19:41.743Z,30.97
2023-05-22T12:22:12.001Z,31.26
2023-05-22T12:24:40.899Z,31.02
2023-05-22T12:27:11.370Z,30.93
2023-05-22T12:29:42.342Z,31.03
2023-05-22T12:32:13.644Z,31.23
2023-05-22T12:34:45.915Z,31.32
2023-05-22T12:37:26.000Z,31.38
2023-05-22T12:40:01.237Z,31.45
2023-05-22T12:42:28.854Z,31.56
2023-05-22T12:45:00.603Z,31.58
2023-05-22T12:47:27.504Z,31.77
2023-05-22T12:49:54.272Z,31.86
2023-05-22T12:52:21.032Z,31.90
2023-05-22T12:54:47.723Z,31.96
2023-05-22T12:57:14.537Z,31.48
2023-05-22T12:59:41.278Z,29.81
2023-05-22T13:02:08.324Z,29.28
2023-05-22T13:04:35.056Z,29.94
2023-05-22T13:07:01.859Z,30.46
2023-05-22T13:09:28.653Z,30.80
2023-05-22T13:11:55.619Z,30.26
2023-05-22T13:14:22.704Z,29.19
2023-05-22T13:16:49.555Z,28.15
2023-05-22T13:19:17.073Z,28.31
2023-05-22T13:21:44.071Z,28.52
2023-05-22T13:24:11.111Z,27.66
2023-05-22T13:26:37.942Z,27.12
2023-05-22T13:29:05.039Z,26.55
2023-05-22T13:31:37.273Z,26.32
2023-05-22T13:34:04.755Z,26.15
2023-05-22T13:36:31.725Z,26.02
2023-05-22T13:38:58.751Z,25.78
2023-05-22T13:41:25.661Z,25.58
2023-05-22T13:43:52.567Z,25.50
2023-05-22T13:46:21.686Z,25.16
2023-05-22T13:48:48.689Z,25.15
2023-05-22T13:51:15.387Z,25.10
2023-05-22T13:53:42.232Z,25.00
2023-05-22T13:56:08.968Z,24.75
2023-05-22T13:58:35.831Z,24.54
2023-05-22T14:01:02.635Z,24.39
2023-05-22T14:03:29.437Z,24.12
2023-05-22T14:05:56.235Z,24.10
2023-05-22T14:08:22.988Z,24.06
2023-05-22T14:10:49.689Z,23.83
2023-05-22T14:13:16.866Z,23.82
2023-05-22T14:15:46.910Z,23.68
2023-05-22T14:18:14.664Z,23.67
2023-05-22T14:20:41.524Z,23.71
2023-05-22T14:23:08.498Z,23.43
2023-05-22T14:25:36.341Z,23.01
2023-05-22T14:28:03.046Z,22.54
2023-05-22T14:30:29.810Z,22.56
2023-05-22T14:32:56.588Z,22.75
2023-05-22T14:35:23.327Z,22.84
2023-05-22T14:37:49.993Z,22.94
2023-05-22T14:40:16.831Z,22.95
2023-05-22T14:42:44.001Z,22.95
2023-05-22T14:45:11.149Z,23.12
2023-05-22T14:47:37.936Z,23.31
2023-05-22T14:50:18.139Z,23.64
2023-05-22T14:52:46.192Z,24.13
2023-05-22T14:55:13.045Z,24.76
2023-05-22T14:57:39.745Z,25.13
2023-05-22T15:00:08.835Z,24.47
2023-05-22T15:02:37.169Z,23.87
2023-05-22T15:05:04.538Z,23.38
2023-05-22T15:07:43.220Z,23.07
2023-05-22T15:10:11.170Z,22.65
2023-05-22T15:12:37.955Z,22.48
2023-05-22T15:15:05.112Z,22.19
2023-05-22T15:17:31.899Z,21.97
2023-05-22T15:19:58.624Z,21.69
2023-05-22T15:22:25.293Z,21.41
2023-05-22T15:25:06.995Z,21.29
2023-05-22T15:27:37.655Z,21.22
2023-05-22T15:30:05.847Z,21.16
2023-05-22T15:32:33.172Z,21.19
2023-05-22T15:35:00.141Z,20.97
2023-05-22T15:37:27.951Z,20.82
2023-05-22T15:39:55.844Z,20.72
2023-05-22T15:42:22.496Z,20.52
2023-05-22T15:44:49.228Z,20.39
2023-05-22T15:47:16.716Z,20.20
2023-05-22T15:49:43.415Z,19.88
2023-05-22T15:52:10.152Z,19.70
2023-05-22T15:54:36.896Z,19.81
2023-05-22T15:57:03.749Z,19.93
2023-05-22T15:59:30.591Z,19.90
2023-05-22T16:01:57.274Z,19.93
2023-05-22T16:04:24.019Z,19.85
2023-05-22T16:06:50.842Z,19.78
2023-05-22T16:09:19.427Z,19.79
2023-05-22T16:11:46.294Z,19.83
2023-05-22T16:14:13.271Z,19.48
2023-05-22T16:16:40.216Z,19.13
2023-05-22T16:19:06.963Z,19.10
2023-05-22T16:21:33.699Z,18.95
2023-05-22T16:24:00.459Z,19.00
2023-05-22T16:26:27.245Z,19.02
2023-05-22T16:28:53.917Z,19.00
2023-05-22T16:31:20.852Z,18.80
2023-05-22T16:33:47.623Z,18.72
2023-05-22T16:36:14.429Z,18.77
2023-05-22T16:38:41.995Z,18.81
2023-05-22T16:41:08.741Z,18.74
2023-05-22T16:43:36.749Z,18.72
2023-05-22T16:46:03.553Z,18.75
2023-05-22T16:48:30.327Z,18.67
2023-05-22T16:50:57.073Z,18.78
2023-05-22T16:53:23.765Z,18.76
2023-05-22T16:55:50.479Z,18.72
2023-05-22T16:58:17.228Z,18.82
2023-05-22T17:00:44.119Z,18.86
2023-05-22T17:03:12.148Z,18.97
2023-05-22T17:05:39.334Z,19.07
2023-05-22T17:08:06.694Z,19.02
2023-05-22T17:10:33.396Z,19.01
2023-05-22T17:13:00.118Z,19.06
2023-05-22T17:15:27.007Z,18.88
2023-05-22T17:17:53.798Z,18.63
2023-05-22T17:20:22.875Z,18.53
2023-05-22T17:22:49.821Z,18.60
2023-05-22T17:25:16.664Z,18.64
2023-05-22T17:27:43.487Z,18.55
2023-05-22T17:30:11.202Z,18.61
2023-05-22T17:32:38.162Z,18.68
2023-05-22T17:35:06.842Z,18.74
2023-05-22T17:37:34.085Z,18.83
2023-05-22T17:40:00.986Z,18.82
2023-05-22T17:42:27.680Z,18.84
2023-05-22T17:44:54.402Z,18.89
2023-05-22T17:47:21.370Z,18.75
2023-05-22T17:49:48.215Z,18.75
2023-05-22T17:52:14.964Z,18.77
2023-05-22T17:54:41.718Z,18.77
2023-05-22T17:57:08.464Z,18.70
2023-05-22T17:59:35.757Z,18.63
2023-05-22T18:02:03.423Z,18.74
2023-05-22T18:04:30.129Z,18.71
2023-05-22T18:06:56.844Z,18.81
2023-05-22T18:09:23.548Z,18.68
2023-05-22T18:11:52.573Z,18.66
2023-05-22T18:14:19.731Z,18.53
2023-05-22T18:16:46.499Z,18.53
2023-05-22T18:19:13.230Z,18.57
2023-05-22T18:21:39.970Z,18.56
2023-05-22T18:24:06.714Z,18.58
2023-05-22T18:26:33.451Z,18.59
2023-05-22T18:29:00.148Z,18.53
2023-05-22T18:31:26.917Z,18.55
2023-05-22T18:33:53.665Z,18.58
2023-05-22T18:36:20.695Z,18.57
2023-05-22T18:38:47.374Z,18.49
2023-05-22T18:41:14.087Z,18.40
2023-05-22T18:43:40.758Z,18.34
2023-05-22T18:46:07.540Z,18.25
2023-05-22T18:48:34.223Z,18.11
2023-05-22T18:51:01.154Z,18.13
2023-05-22T18:53:27.976Z,17.95
2023-05-22T18:55:54.762Z,17.92
2023-05-22T18:58:21.699Z,17.84
2023-05-22T19:00:48.608Z,17.83
2023-05-22T19:03:15.529Z,17.76
2023-05-22T19:05:43.114Z,17.77
2023-05-22T19:08:09.861Z,17.63
2023-05-22T19:10:36.521Z,17.63
2023-05-22T19:13:03.986Z,17.54
2023-05-22T19:15:30.811Z,17.47
2023-05-22T19:17:57.750Z,17.48
2023-05-22T19:20:24.562Z,17.37
2023-05-22T19:22:51.557Z,17.28
2023-05-22T19:25:18.528Z,17.28
2023-05-22T19:27:45.969Z,17.25
2023-05-22T19:30:15.306Z,17.24
2023-05-22T19:32:45.335Z,17.17
2023-05-22T19:35:12.204Z,17.11
2023-05-22T19:37:38.912Z,17.17
2023-05-22T19:40:06.208Z,17.14
2023-05-22T19:42:33.126Z,17.12
2023-05-22T19:44:59.914Z,17.14
2023-05-22T19:47:27.400Z,17.21
2023-05-22T19:49:54.176Z,17.07
2023-05-22T19:52:20.990Z,17.06
2023-05-22T19:54:47.681Z,17.16
2023-05-22T19:57:14.422Z,17.11
2023-05-22T19:59:41.143Z,17.07
2023-05-22T20:02:07.932Z,17.10
2023-05-22T20:04:34.872Z,17.09
2023-05-22T20:07:03.757Z,17.02
2023-05-22T20:09:30.537Z,17.01
2023-05-22T20:11:57.319Z,16.96
2023-05-22T20:14:24.004Z,16.99
2023-05-22T20:16:51.220Z,16.97
2023-05-22T20:19:18.057Z,16.91
2023-05-22T20:21:44.786Z,16.93
2023-05-22T20:24:21.008Z,16.94
2023-05-22T20:26:48.013Z,16.94
2023-05-22T20:29:14.939Z,16.95
2023-05-22T20:31:41.804Z,16.94
2023-05-22T20:34:09.624Z,16.89
2023-05-22T20:36:36.656Z,16.91
2023-05-22T20:39:03.635Z,16.78
2023-05-22T20:41:30.322Z,16.73
2023-05-22T20:43:58.690Z,16.56
2023-05-22T20:46:26.598Z,16.62
2023-05-22T20:48:53.793Z,16.57
2023-05-22T20:51:20.947Z,16.55
2023-05-22T20:53:51.541Z,16.54
2023-05-22T20:56:18.251Z,16.53
2023-05-22T20:58:45.006Z,16.55
2023-05-22T21:01:11.743Z,16.52
2023-05-22T21:03:38.536Z,16.49
2023-05-22T21:06:05.527Z,16.45
2023-05-22T21:08:32.638Z,16.42
2023-05-22T21:10:59.278Z,16.43
2023-05-22T21:13:26.020Z,16.41
2023-05-22T21:15:52.699Z,16.41
2023-05-22T21:18:19.936Z,16.37
2023-05-22T21:20:46.881Z,16.40
2023-05-22T21:23:13.691Z,16.32
2023-05-22T21:25:40.517Z,16.34
2023-05-22T21:28:07.964Z,16.32
2023-05-22T21:30:34.711Z,16.29
2023-05-22T21:33:01.947Z,16.23
2023-05-22T21:35:28.883Z,16.24
2023-05-22T21:37:55.665Z,16.22
2023-05-22T21:40:22.421Z,16.20
2023-05-22T21:42:49.177Z,16.19
2023-05-22T21:45:15.877Z,16.18
2023-05-22T21:47:42.622Z,16.15
2023-05-22T21:50:10.129Z,16.12
2023-05-22T21:52:36.799Z,16.10
2023-05-22T21:55:04.088Z,16.10
2023-05-22T21:57:31.089Z,16.14
2023-05-22T21:59:57.760Z,16.16
2023-05-22T22:02:24.697Z,16.19
2023-05-22T22:04:51.769Z,16.20
2023-05-22T22:07:18.610Z,16.19
2023-05-22T22:09:45.685Z,16.20
2023-05-22T22:12:12.594Z,16.16
2023-05-22T22:14:39.340Z,16.14
2023-05-22T22:17:07.998Z,16.16
2023-05-22T22:19:36.136Z,16.13
2023-05-22T22:22:03.262Z,16.16
2023-05-22T22:24:48.526Z,16.22
2023-05-22T22:27:15.595Z,16.09
2023-05-22T22:29:43.670Z,16.17
2023-05-22T22:32:10.634Z,16.18
2023-05-22T22:34:37.673Z,16.19
2023-05-22T22:37:06.219Z,16.22
2023-05-22T22:39:32.956Z,16.19
2023-05-22T22:42:04.191Z,16.13
2023-05-22T22:44:32.289Z,16.19
2023-05-22T22:46:59.257Z,16.16
2023-05-22T22:49:25.927Z,16.15
2023-05-22T22:51:52.676Z,16.17
2023-05-22T22:54:19.456Z,16.18
2023-05-22T22:56:47.080Z,16.20
2023-05-22T22:59:13.853Z,16.17
2023-05-22T23:01:40.717Z,16.07
2023-05-22T23:04:07.758Z,16.09
2023-05-22T23:06:34.648Z,16.05
2023-05-22T23:09:03.979Z,16.02
2023-05-22T23:11:37.381Z,15.96
2023-05-22T23:14:08.565Z,15.95
2023-05-22T23:16:42.261Z,15.86
2023-05-22T23:19:10.568Z,15.87
2023-05-22T23:21:37.596Z,15.86
2023-05-22T23:24:04.712Z,15.86
2023-05-22T23:26:32.327Z,15.86
2023-05-22T23:28:59.785Z,15.86
2023-05-22T23:31:30.317Z,15.88
2023-05-22T23:33:58.159Z,15.86
2023-05-22T23:36:25.425Z,15.88
2023-05-22T23:38:52.185Z,15.86
2023-05-22T23:41:19.184Z,15.86
2023-05-22T23:43:46.375Z,15.83
2023-05-22T23:46:14.235Z,15.80
2023-05-22T23:48:42.163Z,15.77
2023-05-22T23:51:10.166Z,15.73
2023-05-22T23:53:37.189Z,15.72
2023-05-22T23:56:04.814Z,15.71
2023-05-22T23:58:32.269Z,15.72
